Time;durP1;ratioP1;P1;durP2;ratioP2;P2;SDS_P1;SDS_P2;PMS_P1;PMS_P2;Temp;Humidity;BMP_temperature;BMP_pressure;BME280_temperature;BME280_humidity;BME280_pressure;Samples;Min_cycle;Max_cycle;Signal;HPM_P1;HPM_P2
2023/11/16 00:00:12;;;;;;;4.90;4.27;;;;;;;;;;5114707;28;20513;-61
2023/11/16 00:02:38;;;;;;;4.50;4.20;;;;;;;;;;5114626;28;20446;-61
2023/11/16 00:05:06;;;;;;;4.77;4.40;;;;;;;;;;5115090;28;20800;-61
2023/11/16 00:07:33;;;;;;;4.77;4.37;;;;;;;;;;5114681;28;20437;-61
2023/11/16 00:10:00;;;;;;;4.23;3.33;;;;;;;;;;5114625;28;20453;-61
2023/11/16 00:12:27;;;;;;;5.03;4.67;;;;;;;;;;5114488;28;20445;-61
2023/11/16 00:14:58;;;;;;;5.10;4.70;;;;;;;;;;5114476;28;20960;-61
2023/11/16 00:17:28;;;;;;;5.70;4.80;;;;;;;;;;5114377;28;20441;-61
2023/11/16 00:19:55;;;;;;;5.07;4.57;;;;;;;;;;5114449;28;20478;-61
2023/11/16 00:22:22;;;;;;;4.53;4.23;;;;;;;;;;5114727;28;20442;-61
2023/11/16 00:24:49;;;;;;;4.77;4.37;;;;;;;;;;5114329;28;20638;-61
2023/11/16 00:27:16;;;;;;;5.10;4.70;;;;;;;;;;5114268;28;20528;-61
2023/11/16 00:29:43;;;;;;;4.83;4.33;;;;;;;;;;5114073;28;20495;-59
2023/11/16 00:32:12;;;;;;;4.47;4.13;;;;;;;;;;5114349;28;20533;-61
2023/11/16 00:34:38;;;;;;;4.97;4.53;;;;;;;;;;5114027;28;20441;-61
2023/11/16 00:37:06;;;;;;;5.20;4.17;;;;;;;;;;5114049;28;20982;-61
2023/11/16 00:39:33;;;;;;;4.63;4.23;;;;;;;;;;5113916;28;20510;-61
2023/11/16 00:42:00;;;;;;;4.60;4.20;;;;;;;;;;5113730;28;20448;-61
2023/11/16 00:44:27;;;;;;;4.30;3.90;;;;;;;;;;5113976;28;20476;-61
2023/11/16 00:46:54;;;;;;;5.03;4.57;;;;;;;;;;5114072;28;20444;-61
2023/11/16 00:49:22;;;;;;;5.50;4.80;;;;;;;;;;5113928;28;20460;-61
2023/11/16 00:51:49;;;;;;;4.60;4.30;;;;;;;;;;5113886;28;20532;-61
2023/11/16 00:54:17;;;;;;;4.20;3.90;;;;;;;;;;5113700;28;20524;-61
2023/11/16 00:56:44;;;;;;;4.83;4.43;;;;;;;;;;5113716;28;20528;-61
2023/11/16 00:59:11;;;;;;;4.77;4.23;;;;;;;;;;5113734;28;20446;-61
2023/11/16 01:01:38;;;;;;;4.97;4.57;;;;;;;;;;5113859;28;20442;-61
2023/11/16 01:04:06;;;;;;;4.87;4.47;;;;;;;;;;5113718;28;20836;-62
2023/11/16 01:06:34;;;;;;;4.80;4.40;;;;;;;;;;5113895;28;20445;-61
2023/11/16 01:09:06;;;;;;;4.97;4.57;;;;;;;;;;5113477;28;20541;-59
2023/11/16 01:11:33;;;;;;;5.27;4.77;;;;;;;;;;5113827;28;20459;-59
2023/11/16 01:14:01;;;;;;;4.80;4.30;;;;;;;;;;5113676;28;20778;-59
2023/11/16 01:16:34;;;;;;;6.80;5.40;;;;;;;;;;5113831;28;20438;-59
2023/11/16 01:19:01;;;;;;;4.73;4.40;;;;;;;;;;5113528;28;20457;-59
2023/11/16 01:21:29;;;;;;;5.00;4.60;;;;;;;;;;5113420;28;20445;-60
2023/11/16 01:24:03;;;;;;;5.80;4.17;;;;;;;;;;5113372;28;20507;-59
2023/11/16 01:26:32;;;;;;;8.63;4.33;;;;;;;;;;5113614;28;20446;-60
2023/11/16 01:29:01;;;;;;;5.83;5.40;;;;;;;;;;5113403;28;20441;-60
2023/11/16 01:31:29;;;;;;;6.67;5.00;;;;;;;;;;5113392;28;20483;-60
2023/11/16 01:33:56;;;;;;;4.70;4.30;;;;;;;;;;5113342;28;20438;-60
2023/11/16 01:36:24;;;;;;;6.00;4.60;;;;;;;;;;5113243;28;20520;-59
2023/11/16 01:38:51;;;;;;;5.47;4.60;;;;;;;;;;5113355;28;20445;-59
2023/11/16 01:41:20;;;;;;;5.80;4.53;;;;;;;;;;5113359;28;20488;-59
2023/11/16 01:43:47;;;;;;;4.13;3.63;;;;;;;;;;5113172;28;20542;-59
2023/11/16 01:46:15;;;;;;;6.30;4.30;;;;;;;;;;5113224;28;20484;-59
2023/11/16 01:48:44;;;;;;;5.13;4.63;;;;;;;;;;5113007;28;20441;-59
2023/11/16 01:51:12;;;;;;;6.50;4.60;;;;;;;;;;5113317;28;20855;-59
2023/11/16 01:53:41;;;;;;;4.73;4.33;;;;;;;;;;5115973;28;21016;-59
2023/11/16 01:56:08;;;;;;;8.10;4.97;;;;;;;;;;5117285;28;20444;-59
2023/11/16 01:58:37;;;;;;;4.40;4.00;;;;;;;;;;5117214;28;20446;-59
2023/11/16 02:01:05;;;;;;;5.03;3.97;;;;;;;;;;5116962;28;20481;-59
2023/11/16 02:03:33;;;;;;;4.40;4.00;;;;;;;;;;5117094;28;20448;-59
2023/11/16 02:06:00;;;;;;;7.13;4.17;;;;;;;;;;5117180;28;20830;-59
2023/11/16 02:08:27;;;;;;;5.10;4.00;;;;;;;;;;5116963;28;20528;-59
2023/11/16 02:10:54;;;;;;;4.03;3.73;;;;;;;;;;5117255;28;20446;-59
2023/11/16 02:13:23;;;;;;;7.97;4.40;;;;;;;;;;5116835;28;20441;-59
2023/11/16 02:15:55;;;;;;;9.03;4.20;;;;;;;;;;5116742;28;20445;-59
2023/11/16 02:18:22;;;;;;;5.30;4.03;;;;;;;;;;5116984;28;20445;-59
2023/11/16 02:20:51;;;;;;;6.60;4.80;;;;;;;;;;5116757;28;20861;-59
2023/11/16 02:23:20;;;;;;;5.70;4.43;;;;;;;;;;5116745;28;20445;-59
2023/11/16 02:25:47;;;;;;;4.33;3.90;;;;;;;;;;5116882;28;20441;-59
2023/11/16 02:28:15;;;;;;;7.70;4.33;;;;;;;;;;5116567;28;20477;-59
2023/11/16 02:30:42;;;;;;;5.90;4.53;;;;;;;;;;5116417;28;20532;-59
2023/11/16 02:33:09;;;;;;;6.80;4.60;;;;;;;;;;5116641;28;20869;-59
2023/11/16 02:35:36;;;;;;;10.10;4.87;;;;;;;;;;5116499;28;20445;-59
2023/11/16 02:38:03;;;;;;;4.63;3.90;;;;;;;;;;5116717;28;20448;-59
2023/11/16 02:40:32;;;;;;;5.90;3.87;;;;;;;;;;5116229;28;20980;-59
2023/11/16 02:42:59;;;;;;;6.13;4.17;;;;;;;;;;5115932;28;20488;-59
2023/11/16 02:45:26;;;;;;;7.03;4.20;;;;;;;;;;5116217;28;20929;-60
2023/11/16 02:47:53;;;;;;;7.63;4.30;;;;;;;;;;5116307;28;20537;-60
2023/11/16 02:50:22;;;;;;;8.33;4.73;;;;;;;;;;5116268;28;20441;-60
2023/11/16 02:52:49;;;;;;;5.03;4.13;;;;;;;;;;5116185;28;20853;-59
2023/11/16 02:55:17;;;;;;;7.93;4.17;;;;;;;;;;5116112;28;20437;-60
2023/11/16 02:57:45;;;;;;;5.13;3.60;;;;;;;;;;5115923;28;20438;-59
2023/11/16 03:00:13;;;;;;;6.73;4.80;;;;;;;;;;5116028;28;20555;-59
2023/11/16 03:02:41;;;;;;;9.73;4.50;;;;;;;;;;5115996;28;20450;-59
2023/11/16 03:05:10;;;;;;;4.10;3.80;;;;;;;;;;5115947;28;20962;-60
2023/11/16 03:07:37;;;;;;;5.00;4.00;;;;;;;;;;5116094;28;20970;-59
2023/11/16 03:10:04;;;;;;;6.83;3.50;;;;;;;;;;5115800;28;20841;-59
2023/11/16 03:12:31;;;;;;;6.03;3.97;;;;;;;;;;5115954;28;20521;-59
2023/11/16 03:14:59;;;;;;;4.30;3.87;;;;;;;;;;5115870;28;20499;-60
2023/11/16 03:17:27;;;;;;;5.10;4.30;;;;;;;;;;5115583;28;21012;-59
2023/11/16 03:19:54;;;;;;;5.17;3.60;;;;;;;;;;5115591;28;20442;-59
2023/11/16 03:22:21;;;;;;;4.97;3.43;;;;;;;;;;5115504;28;20532;-60
2023/11/16 03:24:48;;;;;;;10.83;4.33;;;;;;;;;;5115421;28;20532;-60
2023/11/16 03:27:15;;;;;;;6.97;4.93;;;;;;;;;;5115621;28;20474;-60
2023/11/16 03:29:42;;;;;;;7.57;3.30;;;;;;;;;;5115490;28;20442;-60
2023/11/16 03:32:10;;;;;;;8.67;4.97;;;;;;;;;;5115458;28;20529;-60
2023/11/16 03:34:38;;;;;;;5.13;4.00;;;;;;;;;;5115313;28;20441;-60
2023/11/16 03:37:05;;;;;;;5.00;3.37;;;;;;;;;;5115248;28;20556;-60
2023/11/16 03:39:33;;;;;;;6.37;3.93;;;;;;;;;;5115391;28;20442;-60
2023/11/16 03:42:00;;;;;;;3.43;3.20;;;;;;;;;;5115190;28;20482;-60
2023/11/16 03:44:27;;;;;;;5.70;3.47;;;;;;;;;;5114997;28;20469;-60
2023/11/16 03:46:54;;;;;;;3.83;3.40;;;;;;;;;;5115088;28;20484;-60
2023/11/16 03:49:23;;;;;;;6.03;3.47;;;;;;;;;;5114999;28;20540;-60
2023/11/16 03:51:50;;;;;;;7.07;3.43;;;;;;;;;;5114861;28;20511;-60
2023/11/16 03:54:17;;;;;;;4.27;3.40;;;;;;;;;;5115140;28;20869;-59
2023/11/16 03:56:44;;;;;;;4.07;3.67;;;;;;;;;;5115019;28;20441;-60
2023/11/16 03:59:13;;;;;;;6.93;3.70;;;;;;;;;;5115052;28;20528;-60
2023/11/16 04:01:40;;;;;;;3.33;3.03;;;;;;;;;;5114689;28;20527;-60
2023/11/16 04:04:10;;;;;;;4.80;3.53;;;;;;;;;;5114694;28;20530;-60
2023/11/16 04:06:38;;;;;;;4.00;3.60;;;;;;;;;;5114595;28;20929;-60
2023/11/16 04:09:07;;;;;;;4.33;3.30;;;;;;;;;;5114950;28;20540;-60
2023/11/16 04:11:34;;;;;;;7.13;2.80;;;;;;;;;;5114633;28;20446;-60
2023/11/16 04:14:01;;;;;;;3.77;3.30;;;;;;;;;;5114594;28;20473;-60
2023/11/16 04:16:28;;;;;;;2.87;2.60;;;;;;;;;;5113919;28;20473;-60
2023/11/16 04:18:56;;;;;;;4.63;3.13;;;;;;;;;;5114265;28;20484;-60
2023/11/16 04:21:25;;;;;;;3.77;3.40;;;;;;;;;;5114507;28;20477;-60
2023/11/16 04:23:56;;;;;;;4.67;3.23;;;;;;;;;;5114136;28;21002;-60
2023/11/16 04:26:23;;;;;;;5.07;2.73;;;;;;;;;;5114155;28;20470;-60
2023/11/16 04:28:51;;;;;;;8.17;3.13;;;;;;;;;;5114002;28;20464;-60
2023/11/16 04:31:18;;;;;;;4.20;3.13;;;;;;;;;;5113921;28;20477;-60
2023/11/16 04:33:45;;;;;;;4.60;2.87;;;;;;;;;;5114072;28;20486;-60
2023/11/16 04:36:16;;;;;;;3.77;3.10;;;;;;;;;;5114057;28;20532;-60
2023/11/16 04:38:43;;;;;;;5.53;2.80;;;;;;;;;;5113888;28;20438;-60
2023/11/16 04:41:12;;;;;;;3.83;2.70;;;;;;;;;;5113895;28;20991;-60
2023/11/16 04:43:40;;;;;;;6.50;3.13;;;;;;;;;;5113868;28;20557;-60
2023/11/16 04:46:08;;;;;;;7.93;3.20;;;;;;;;;;5114143;28;21003;-60
2023/11/16 04:48:34;;;;;;;4.17;2.70;;;;;;;;;;5114031;28;20442;-60
2023/11/16 04:51:03;;;;;;;5.03;2.70;;;;;;;;;;5114040;28;20805;-60
2023/11/16 04:53:30;;;;;;;4.00;3.07;;;;;;;;;;5113867;28;20447;-60
2023/11/16 04:55:57;;;;;;;3.07;2.83;;;;;;;;;;5113847;28;20882;-59
2023/11/16 04:58:26;;;;;;;4.13;3.37;;;;;;;;;;5113658;28;20449;-62
2023/11/16 05:00:53;;;;;;;6.33;3.40;;;;;;;;;;5113763;28;20474;-60
2023/11/16 05:03:21;;;;;;;3.57;2.60;;;;;;;;;;5113829;28;20533;-60
2023/11/16 05:05:48;;;;;;;10.60;4.93;;;;;;;;;;5113712;28;20449;-59
2023/11/16 05:08:15;;;;;;;3.30;3.00;;;;;;;;;;5113642;28;20438;-60
2023/11/16 05:10:42;;;;;;;5.43;2.90;;;;;;;;;;5113535;28;20448;-59
2023/11/16 05:13:09;;;;;;;3.47;2.77;;;;;;;;;;5113747;28;20871;-60
2023/11/16 05:15:38;;;;;;;4.70;2.93;;;;;;;;;;5113739;28;21004;-60
2023/11/16 05:18:05;;;;;;;3.60;2.57;;;;;;;;;;5113563;28;20438;-59
2023/11/16 05:20:32;;;;;;;8.43;4.10;;;;;;;;;;5113482;28;20541;-60
2023/11/16 05:22:59;;;;;;;6.80;2.33;;;;;;;;;;5113429;28;20470;-60
2023/11/16 05:25:27;;;;;;;6.30;2.53;;;;;;;;;;5113273;28;20532;-60
2023/11/16 05:27:54;;;;;;;6.97;2.70;;;;;;;;;;5112667;28;20449;-61
2023/11/16 05:30:23;;;;;;;6.00;3.23;;;;;;;;;;5113404;28;20530;-61
2023/11/16 05:32:51;;;;;;;10.20;3.23;;;;;;;;;;5113652;28;20441;-60
2023/11/16 05:35:18;;;;;;;4.30;2.90;;;;;;;;;;5113310;28;20441;-60
2023/11/16 05:37:45;;;;;;;7.00;2.87;;;;;;;;;;5113209;28;20448;-61
2023/11/16 05:40:12;;;;;;;4.83;2.67;;;;;;;;;;5113182;28;20484;-61
2023/11/16 05:42:39;;;;;;;5.13;2.93;;;;;;;;;;5113549;28;20474;-61
2023/11/16 05:45:07;;;;;;;7.13;3.27;;;;;;;;;;5113053;28;20473;-61
2023/11/16 05:47:37;;;;;;;2.87;2.67;;;;;;;;;;5113684;28;20536;-64
2023/11/16 05:50:06;;;;;;;4.00;2.90;;;;;;;;;;5113042;28;20446;-60
2023/11/16 05:52:33;;;;;;;4.60;2.80;;;;;;;;;;5112981;28;20450;-61
2023/11/16 05:55:00;;;;;;;9.23;3.20;;;;;;;;;;5113344;28;20488;-60
2023/11/16 05:57:27;;;;;;;3.57;2.93;;;;;;;;;;5113404;28;20444;-61
2023/11/16 05:59:54;;;;;;;3.87;2.60;;;;;;;;;;5112941;28;20532;-60
2023/11/16 06:02:22;;;;;;;3.27;2.40;;;;;;;;;;5112975;28;20488;-61
2023/11/16 06:04:50;;;;;;;3.03;2.80;;;;;;;;;;5113015;28;20441;-61
2023/11/16 06:07:18;;;;;;;4.40;4.00;;;;;;;;;;5113097;28;20540;-61
2023/11/16 06:09:45;;;;;;;4.70;2.83;;;;;;;;;;5113114;28;20441;-61
2023/11/16 06:12:15;;;;;;;10.93;2.67;;;;;;;;;;5113013;28;20528;-61
2023/11/16 06:14:42;;;;;;;8.63;2.53;;;;;;;;;;5112965;28;20445;-60
2023/11/16 06:17:09;;;;;;;6.10;2.57;;;;;;;;;;5112891;28;20474;-60
2023/11/16 06:19:36;;;;;;;4.30;3.03;;;;;;;;;;5112750;28;20536;-60
2023/11/16 06:22:03;;;;;;;4.40;3.27;;;;;;;;;;5112918;28;20526;-60
2023/11/16 06:24:31;;;;;;;3.77;2.33;;;;;;;;;;5112861;28;20442;-60
2023/11/16 06:26:58;;;;;;;7.30;3.17;;;;;;;;;;5112798;28;20533;-61
2023/11/16 06:29:25;;;;;;;6.40;4.37;;;;;;;;;;5112740;28;20877;-60
2023/11/16 06:31:52;;;;;;;7.33;2.70;;;;;;;;;;5112627;28;20906;-61
2023/11/16 06:34:20;;;;;;;4.70;2.93;;;;;;;;;;5112480;28;20473;-61
2023/11/16 06:36:48;;;;;;;7.90;2.87;;;;;;;;;;5112815;28;20438;-60
2023/11/16 06:39:15;;;;;;;5.70;2.83;;;;;;;;;;5114672;28;20560;-61
2023/11/16 06:41:43;;;;;;;7.67;2.87;;;;;;;;;;5116503;28;20571;-61
2023/11/16 06:44:10;;;;;;;3.03;2.27;;;;;;;;;;5116267;28;20576;-61
2023/11/16 06:46:38;;;;;;;7.23;2.63;;;;;;;;;;5116090;28;20540;-60
2023/11/16 06:49:07;;;;;;;5.87;2.70;;;;;;;;;;5116300;28;20442;-61
2023/11/16 06:51:35;;;;;;;7.63;2.43;;;;;;;;;;5116253;28;20801;-60
2023/11/16 06:54:05;;;;;;;7.40;2.60;;;;;;;;;;5116153;28;20940;-60
2023/11/16 06:56:33;;;;;;;7.57;2.50;;;;;;;;;;5116002;28;20511;-60
2023/11/16 06:59:03;;;;;;;4.40;2.13;;;;;;;;;;5116162;28;20449;-60
2023/11/16 07:01:32;;;;;;;3.37;2.33;;;;;;;;;;5115953;28;20466;-60
2023/11/16 07:04:00;;;;;;;5.10;2.80;;;;;;;;;;5115939;28;20533;-60
2023/11/16 07:06:29;;;;;;;4.53;3.10;;;;;;;;;;5115918;28;20472;-61
2023/11/16 07:08:56;;;;;;;4.00;2.43;;;;;;;;;;5115740;28;20442;-60
2023/11/16 07:11:23;;;;;;;2.50;2.30;;;;;;;;;;5115820;28;20446;-60
2023/11/16 07:13:50;;;;;;;3.60;2.73;;;;;;;;;;5115582;28;20497;-60
2023/11/16 07:16:20;;;;;;;4.17;2.47;;;;;;;;;;5115709;28;20452;-60
2023/11/16 07:18:47;;;;;;;5.50;3.17;;;;;;;;;;5115685;27;20491;-61
2023/11/16 07:21:14;;;;;;;6.23;2.53;;;;;;;;;;5115536;28;20484;-61
2023/11/16 07:23:42;;;;;;;3.77;2.10;;;;;;;;;;5115655;28;21016;-60
2023/11/16 07:26:09;;;;;;;6.13;2.50;;;;;;;;;;5115384;28;20484;-61
2023/11/16 07:28:36;;;;;;;5.30;2.40;;;;;;;;;;5115594;28;20533;-61
2023/11/16 07:31:04;;;;;;;9.27;2.60;;;;;;;;;;5115435;28;20441;-61
2023/11/16 07:33:34;;;;;;;5.73;2.10;;;;;;;;;;5115388;28;20448;-61
2023/11/16 07:36:01;;;;;;;6.40;2.30;;;;;;;;;;5115192;28;20531;-61
2023/11/16 07:38:28;;;;;;;5.43;2.47;;;;;;;;;;5115156;28;20516;-60
2023/11/16 07:40:57;;;;;;;5.97;2.40;;;;;;;;;;5115106;28;20929;-60
2023/11/16 07:43:24;;;;;;;4.90;2.80;;;;;;;;;;5115117;28;20485;-60
2023/11/16 07:45:52;;;;;;;4.33;2.50;;;;;;;;;;5115182;28;20536;-61
2023/11/16 07:48:20;;;;;;;5.97;2.90;;;;;;;;;;5114823;28;20533;-60
2023/11/16 07:50:48;;;;;;;3.90;2.13;;;;;;;;;;5114248;28;20481;-59
2023/11/16 07:53:16;;;;;;;8.50;2.30;;;;;;;;;;5114710;28;20452;-59
2023/11/16 07:55:44;;;;;;;8.40;2.40;;;;;;;;;;5114681;28;20797;-59
2023/11/16 07:58:13;;;;;;;5.73;2.30;;;;;;;;;;5114836;28;20514;-59
2023/11/16 08:00:55;;;;;;;6.30;2.27;;;;;;;;;;5114879;28;20477;-59
2023/11/16 08:06:12;;;;;;;10.10;2.83;;;;;;;;;;5114721;28;20839;-59
2023/11/16 08:08:41;;;;;;;8.40;2.83;;;;;;;;;;5114839;28;20467;-58
2023/11/16 08:11:08;;;;;;;7.13;2.67;;;;;;;;;;5114481;28;20444;-59
2023/11/16 08:13:35;;;;;;;3.23;2.77;;;;;;;;;;5112503;28;20475;-59
2023/11/16 08:16:04;;;;;;;7.60;2.70;;;;;;;;;;5112240;28;20469;-59
2023/11/16 08:18:31;;;;;;;5.17;2.10;;;;;;;;;;5110348;28;21329;-59
2023/11/16 08:20:58;;;;;;;4.40;2.00;;;;;;;;;;5111219;28;20456;-58
2023/11/16 08:23:29;;;;;;;5.10;2.20;;;;;;;;;;5112042;28;20481;-58
2023/11/16 08:25:57;;;;;;;3.53;2.50;;;;;;;;;;5111644;28;20446;-58
2023/11/16 08:28:28;;;;;;;2.67;1.90;;;;;;;;;;5113150;28;20465;-58
2023/11/16 08:30:55;;;;;;;6.27;2.80;;;;;;;;;;5113336;28;20499;-58
2023/11/16 08:33:22;;;;;;;6.90;2.00;;;;;;;;;;5113975;28;20441;-58
2023/11/16 08:35:50;;;;;;;5.00;2.30;;;;;;;;;;5113714;28;20520;-58
2023/11/16 08:38:17;;;;;;;4.30;2.40;;;;;;;;;;5113603;28;20444;-58
2023/11/16 08:40:45;;;;;;;4.50;3.03;;;;;;;;;;5113416;28;20524;-58
2023/11/16 08:43:13;;;;;;;4.93;3.00;;;;;;;;;;5113247;28;20565;-59
2023/11/16 08:45:41;;;;;;;3.20;2.13;;;;;;;;;;5113704;28;20525;-58
2023/11/16 08:48:09;;;;;;;5.87;2.07;;;;;;;;;;5113545;28;20444;-58
2023/11/16 08:50:42;;;;;;;3.90;2.10;;;;;;;;;;5113504;28;20421;-58
2023/11/16 08:53:09;;;;;;;8.13;4.23;;;;;;;;;;5113237;28;20520;-58
2023/11/16 08:55:36;;;;;;;5.87;2.47;;;;;;;;;;5113128;28;20437;-58
2023/11/16 08:58:06;;;;;;;5.13;2.27;;;;;;;;;;5113000;28;20879;-59
2023/11/16 09:00:35;;;;;;;3.87;2.03;;;;;;;;;;5113346;28;20444;-58
2023/11/16 09:03:04;;;;;;;5.35;2.40;;;;;;;;;;5112346;28;20484;-58
2023/11/16 09:05:32;;;;;;;6.63;2.40;;;;;;;;;;5113349;28;20212;-58
2023/11/16 09:08:01;;;;;;;2.17;1.97;;;;;;;;;;5110665;28;20495;-58
2023/11/16 09:10:28;;;;;;;3.23;2.50;;;;;;;;;;5113000;28;20446;-58
2023/11/16 09:12:55;;;;;;;3.93;1.90;;;;;;;;;;5113046;28;20525;-58
2023/11/16 09:15:23;;;;;;;7.83;5.13;;;;;;;;;;5112901;28;20474;-58
2023/11/16 09:17:51;;;;;;;3.67;1.93;;;;;;;;;;5112831;28;20506;-58
2023/11/16 09:20:19;;;;;;;2.63;2.20;;;;;;;;;;5112813;28;20437;-58
2023/11/16 09:22:48;;;;;;;3.03;1.67;;;;;;;;;;5113405;28;20478;-59
2023/11/16 09:25:19;;;;;;;5.07;2.23;;;;;;;;;;5113182;28;20449;-59
2023/11/16 09:27:50;;;;;;;4.47;2.37;;;;;;;;;;5113374;28;20437;-58
2023/11/16 09:30:18;;;;;;;2.40;2.20;;;;;;;;;;5113363;28;20441;-59
2023/11/16 09:32:46;;;;;;;14.40;7.87;;;;;;;;;;5113243;28;20528;-58
2023/11/16 09:35:15;;;;;;;7.90;4.83;;;;;;;;;;5113628;28;20549;-60
2023/11/16 09:37:45;;;;;;;5.03;2.90;;;;;;;;;;5113298;28;20449;-60
2023/11/16 09:40:13;;;;;;;2.80;1.40;;;;;;;;;;5113296;28;20523;-60
2023/11/16 09:42:43;;;;;;;5.03;1.60;;;;;;;;;;5113211;28;20565;-60
2023/11/16 09:45:10;;;;;;;5.30;2.77;;;;;;;;;;5112837;28;20469;-60
2023/11/16 09:47:43;;;;;;;2.27;1.70;;;;;;;;;;5113045;28;20451;-60
2023/11/16 09:50:12;;;;;;;2.43;1.50;;;;;;;;;;5113006;28;20441;-60
2023/11/16 09:52:39;;;;;;;6.07;3.00;;;;;;;;;;5113084;28;20437;-60
2023/11/16 09:55:09;;;;;;;2.73;1.20;;;;;;;;;;5113150;28;20441;-64
2023/11/16 09:57:37;;;;;;;3.13;1.60;;;;;;;;;;5113065;28;20441;-66
2023/11/16 10:00:14;;;;;;;3.30;1.50;;;;;;;;;;5113042;28;20499;-61
2023/11/16 10:02:43;;;;;;;3.33;1.30;;;;;;;;;;5112831;28;20481;-60
2023/11/16 10:05:22;;;;;;;3.60;1.73;;;;;;;;;;5113189;28;20487;-60
2023/11/16 10:07:51;;;;;;;3.00;1.20;;;;;;;;;;5112935;28;20711;-58
2023/11/16 10:10:19;;;;;;;2.23;1.00;;;;;;;;;;5112809;28;21014;-59
2023/11/16 10:12:47;;;;;;;1.20;1.10;;;;;;;;;;5112823;28;20510;-63
2023/11/16 10:15:17;;;;;;;1.10;0.90;;;;;;;;;;5116544;28;20442;-61
2023/11/16 10:17:44;;;;;;;1.67;1.00;;;;;;;;;;5116860;28;20520;-63
2023/11/16 10:20:12;;;;;;;2.47;1.30;;;;;;;;;;5116909;28;20445;-62
2023/11/16 10:22:41;;;;;;;2.27;1.00;;;;;;;;;;5116665;28;20509;-62
2023/11/16 10:25:10;;;;;;;3.23;0.90;;;;;;;;;;5116476;28;20483;-64
2023/11/16 10:27:37;;;;;;;2.17;0.97;;;;;;;;;;5116273;28;20445;-62
2023/11/16 10:30:06;;;;;;;1.47;0.97;;;;;;;;;;5116602;28;20963;-61
2023/11/16 10:32:34;;;;;;;3.13;1.20;;;;;;;;;;5116579;28;20532;-59
2023/11/16 10:35:02;;;;;;;2.23;0.90;;;;;;;;;;5116550;28;20925;-59
2023/11/16 10:37:30;;;;;;;2.70;1.10;;;;;;;;;;5116330;28;20449;-61
2023/11/16 10:39:58;;;;;;;2.30;1.00;;;;;;;;;;5116106;28;20448;-60
2023/11/16 10:42:26;;;;;;;0.90;0.80;;;;;;;;;;5116100;28;20474;-61
2023/11/16 10:44:54;;;;;;;0.90;0.90;;;;;;;;;;5116256;28;20999;-61
2023/11/16 10:47:21;;;;;;;2.00;1.00;;;;;;;;;;5115777;28;20448;-60
2023/11/16 10:49:49;;;;;;;2.03;1.20;;;;;;;;;;5116228;28;20481;-61
2023/11/16 10:52:16;;;;;;;3.13;2.20;;;;;;;;;;5116033;28;20445;-61
2023/11/16 10:54:45;;;;;;;4.20;1.90;;;;;;;;;;5115599;28;20992;-62
2023/11/16 10:57:17;;;;;;;2.00;1.07;;;;;;;;;;5115968;28;20442;-61
2023/11/16 10:59:47;;;;;;;1.83;1.40;;;;;;;;;;5116039;28;20536;-60
2023/11/16 11:02:15;;;;;;;2.90;2.37;;;;;;;;;;5115790;28;20503;-60
2023/11/16 11:04:42;;;;;;;1.70;1.60;;;;;;;;;;5115699;28;21001;-61
2023/11/16 11:07:09;;;;;;;2.20;1.57;;;;;;;;;;5115728;28;20820;-61
2023/11/16 11:09:42;;;;;;;1.30;1.10;;;;;;;;;;5115745;28;20553;-64
2023/11/16 11:12:12;;;;;;;2.93;1.47;;;;;;;;;;5115720;28;20804;-60
2023/11/16 11:14:44;;;;;;;2.70;1.43;;;;;;;;;;5115723;28;20452;-61
2023/11/16 11:17:16;;;;;;;3.17;1.20;;;;;;;;;;5115430;28;20499;-60
2023/11/16 11:19:43;;;;;;;2.77;1.40;;;;;;;;;;5115437;28;20532;-60
2023/11/16 11:22:15;;;;;;;2.73;1.20;;;;;;;;;;5115327;28;20944;-61
2023/11/16 11:24:46;;;;;;;1.87;1.00;;;;;;;;;;5114519;28;20446;-60
2023/11/16 11:27:13;;;;;;;1.20;1.00;;;;;;;;;;5115249;28;20804;-61
2023/11/16 11:29:40;;;;;;;1.73;0.97;;;;;;;;;;5115701;28;20540;-60
2023/11/16 11:32:12;;;;;;;1.03;0.93;;;;;;;;;;5115123;28;20499;-60
2023/11/16 11:34:39;;;;;;;1.33;0.83;;;;;;;;;;5115340;28;20441;-60
2023/11/16 11:37:10;;;;;;;0.97;0.70;;;;;;;;;;5115182;28;20936;-60
2023/11/16 11:39:39;;;;;;;0.73;0.70;;;;;;;;;;5115305;28;20473;-60
2023/11/16 11:42:06;;;;;;;2.90;0.80;;;;;;;;;;5115082;28;20450;-60
2023/11/16 11:44:32;;;;;;;2.60;1.27;;;;;;;;;;5114892;28;20486;-60
2023/11/16 11:46:59;;;;;;;0.70;0.67;;;;;;;;;;5115089;28;20442;-61
2023/11/16 11:49:28;;;;;;;1.30;0.80;;;;;;;;;;5114973;28;20541;-61
2023/11/16 11:51:55;;;;;;;1.37;0.90;;;;;;;;;;5115341;28;20545;-61
2023/11/16 11:54:32;;;;;;;0.93;0.80;;;;;;;;;;5114741;28;20450;-61
2023/11/16 11:56:59;;;;;;;1.80;1.00;;;;;;;;;;5114658;28;20797;-60
2023/11/16 11:59:26;;;;;;;1.50;0.90;;;;;;;;;;5114825;28;20445;-61
2023/11/16 12:01:55;;;;;;;1.00;0.80;;;;;;;;;;5114846;28;20638;-62
2023/11/16 12:04:22;;;;;;;2.60;1.30;;;;;;;;;;5114692;28;20835;-62
2023/11/16 12:06:50;;;;;;;3.80;1.37;;;;;;;;;;5114549;28;20450;-58
2023/11/16 12:09:18;;;;;;;2.53;1.30;;;;;;;;;;5114188;28;20536;-60
2023/11/16 12:11:45;;;;;;;1.30;1.20;;;;;;;;;;5114367;28;20481;-60
2023/11/16 12:14:14;;;;;;;1.53;1.20;;;;;;;;;;5114714;28;20589;-58
2023/11/16 12:16:45;;;;;;;1.50;1.30;;;;;;;;;;5114591;28;20454;-61
2023/11/16 12:19:21;;;;;;;1.03;0.87;;;;;;;;;;5114278;28;20441;-61
2023/11/16 12:21:48;;;;;;;3.17;0.77;;;;;;;;;;5114678;28;20437;-59
2023/11/16 12:24:20;;;;;;;0.90;0.77;;;;;;;;;;5113674;28;20486;-59
2023/11/16 12:26:47;;;;;;;1.10;0.80;;;;;;;;;;5114394;28;20647;-59
2023/11/16 12:29:15;;;;;;;0.97;0.70;;;;;;;;;;5114249;28;20441;-58
2023/11/16 12:31:43;;;;;;;0.90;0.73;;;;;;;;;;5114225;28;20523;-59
2023/11/16 12:34:10;;;;;;;0.60;0.60;;;;;;;;;;5114095;28;20498;-57
2023/11/16 12:36:44;;;;;;;1.47;0.70;;;;;;;;;;5113567;28;20446;-60
2023/11/16 12:39:13;;;;;;;1.10;0.60;;;;;;;;;;5114272;28;21008;-59
2023/11/16 12:41:41;;;;;;;3.00;0.70;;;;;;;;;;5114074;28;20434;-61
2023/11/16 12:44:10;;;;;;;1.93;0.50;;;;;;;;;;5113739;28;20840;-62
2023/11/16 12:46:38;;;;;;;0.87;0.57;;;;;;;;;;5113788;28;20541;-62
2023/11/16 12:49:06;;;;;;;0.80;0.60;;;;;;;;;;5113567;28;20445;-60
2023/11/16 12:51:33;;;;;;;0.90;0.60;;;;;;;;;;5113647;28;20446;-60
2023/11/16 12:54:01;;;;;;;1.13;0.60;;;;;;;;;;5113880;28;20519;-60
2023/11/16 12:56:28;;;;;;;1.83;0.70;;;;;;;;;;5113664;28;20452;-60
2023/11/16 12:58:57;;;;;;;2.77;0.70;;;;;;;;;;5113668;28;20533;-56
2023/11/16 13:01:24;;;;;;;0.67;0.53;;;;;;;;;;5113540;28;20477;-61
2023/11/16 13:03:52;;;;;;;0.60;0.50;;;;;;;;;;5113338;28;21002;-59
2023/11/16 13:06:19;;;;;;;0.80;0.60;;;;;;;;;;5114037;28;20441;-61
2023/11/16 13:08:46;;;;;;;1.73;0.70;;;;;;;;;;5113413;28;20452;-62
2023/11/16 13:11:14;;;;;;;1.03;0.60;;;;;;;;;;5113353;28;20445;-61
2023/11/16 13:13:41;;;;;;;2.93;0.60;;;;;;;;;;5113516;28;20813;-59
2023/11/16 13:16:12;;;;;;;1.03;0.70;;;;;;;;;;5113233;28;20479;-58
2023/11/16 13:18:39;;;;;;;1.10;0.70;;;;;;;;;;5113393;28;20437;-55
2023/11/16 13:21:09;;;;;;;0.67;0.67;;;;;;;;;;5112921;28;20517;-57
2023/11/16 13:23:36;;;;;;;1.63;0.60;;;;;;;;;;5112854;28;20462;-55
2023/11/16 13:26:04;;;;;;;0.80;0.67;;;;;;;;;;5113368;28;20475;-56
2023/11/16 13:28:30;;;;;;;0.97;0.60;;;;;;;;;;5113152;28;20805;-53
2023/11/16 13:30:59;;;;;;;0.80;0.73;;;;;;;;;;5113050;28;20448;-54
2023/11/16 13:33:27;;;;;;;2.30;0.80;;;;;;;;;;5112243;28;20855;-56
2023/11/16 13:35:54;;;;;;;0.83;0.73;;;;;;;;;;5111157;28;20529;-57
2023/11/16 13:38:22;;;;;;;1.77;0.60;;;;;;;;;;5111304;28;20892;-56
2023/11/16 13:40:49;;;;;;;6.10;0.60;;;;;;;;;;5111239;28;20477;-55
2023/11/16 13:43:17;;;;;;;2.00;0.60;;;;;;;;;;5111261;28;20500;-56
2023/11/16 13:45:44;;;;;;;1.50;0.67;;;;;;;;;;5111669;28;20541;-56
2023/11/16 13:48:12;;;;;;;0.77;0.70;;;;;;;;;;5112305;28;20940;-56
2023/11/16 13:50:41;;;;;;;1.23;0.70;;;;;;;;;;5117353;28;20441;-54
2023/11/16 13:53:09;;;;;;;3.93;0.70;;;;;;;;;;5117267;28;20475;-56
2023/11/16 13:55:36;;;;;;;3.30;0.80;;;;;;;;;;5117187;28;20446;-56
2023/11/16 13:58:04;;;;;;;1.07;0.90;;;;;;;;;;5116930;28;20528;-57
2023/11/16 14:00:32;;;;;;;0.90;0.60;;;;;;;;;;5117284;28;20442;-54
2023/11/16 14:02:59;;;;;;;1.63;0.60;;;;;;;;;;5117215;28;20441;-55
2023/11/16 14:05:26;;;;;;;1.43;0.80;;;;;;;;;;5117115;28;20524;-56
2023/11/16 14:07:55;;;;;;;0.60;0.60;;;;;;;;;;5116942;28;20476;-56
2023/11/16 14:10:23;;;;;;;1.07;0.57;;;;;;;;;;5116734;28;20437;-56
2023/11/16 14:12:51;;;;;;;1.60;1.23;;;;;;;;;;5117262;28;20445;-55
2023/11/16 14:15:18;;;;;;;1.50;0.70;;;;;;;;;;5116943;28;20445;-56
2023/11/16 14:17:45;;;;;;;1.83;0.60;;;;;;;;;;5116901;28;20484;-57
2023/11/16 14:20:12;;;;;;;0.90;0.70;;;;;;;;;;5116804;28;20473;-54
2023/11/16 14:22:40;;;;;;;1.93;0.70;;;;;;;;;;5116661;28;20935;-56
2023/11/16 14:25:09;;;;;;;0.90;0.60;;;;;;;;;;5116511;28;20481;-54
2023/11/16 14:27:36;;;;;;;1.60;0.80;;;;;;;;;;5116507;28;20936;-54
2023/11/16 14:30:03;;;;;;;1.10;1.00;;;;;;;;;;5116378;28;20448;-54
2023/11/16 14:32:30;;;;;;;2.03;1.70;;;;;;;;;;5116504;28;20449;-54
2023/11/16 14:34:59;;;;;;;2.37;2.17;;;;;;;;;;5116522;28;20797;-55
2023/11/16 14:37:26;;;;;;;2.73;2.50;;;;;;;;;;5116226;28;20774;-57
2023/11/16 14:39:53;;;;;;;2.00;1.77;;;;;;;;;;5116635;28;20533;-56
2023/11/16 14:42:21;;;;;;;2.70;2.17;;;;;;;;;;5116486;28;20447;-59
2023/11/16 14:44:51;;;;;;;2.20;2.00;;;;;;;;;;5116456;28;20538;-59
2023/11/16 14:47:18;;;;;;;25.97;20.47;;;;;;;;;;5116534;28;20789;-61
2023/11/16 14:49:45;;;;;;;32.73;24.83;;;;;;;;;;5116288;28;20541;-61